sensor_id;sensor_type;location;lat;lon;timestamp;P1;durP1;ratioP1;P2;durP2;ratioP2
19414;SDS011;9843;48.882;12.592;2022-08-14T00:00:18;10.00;;;9.07;;
19414;SDS011;9843;48.882;12.592;2022-08-14T00:02:46;10.70;;;9.70;;
19414;SDS011;9843;48.882;12.592;2022-08-14T00:05:13;9.20;;;8.37;;
19414;SDS011;9843;48.882;12.592;2022-08-14T00:07:41;12.37;;;9.80;;
19414;SDS011;9843;48.882;12.592;2022-08-14T00:10:14;13.23;;;10.50;;
19414;SDS011;9843;48.882;12.592;2022-08-14T00:12:43;10.37;;;9.43;;
19414;SDS011;9843;48.882;12.592;2022-08-14T00:15:15;11.57;;;10.47;;
19414;SDS011;9843;48.882;12.592;2022-08-14T00:17:44;12.97;;;9.43;;
19414;SDS011;9843;48.882;12.592;2022-08-14T00:20:12;9.73;;;8.73;;
19414;SDS011;9843;48.882;12.592;2022-08-14T00:22:39;11.80;;;10.77;;
19414;SDS011;9843;48.882;12.592;2022-08-14T00:25:06;11.47;;;9.87;;
19414;SDS011;9843;48.882;12.592;2022-08-14T00:27:33;9.90;;;9.10;;
19414;SDS011;9843;48.882;12.592;2022-08-14T00:30:02;10.77;;;9.70;;
19414;SDS011;9843;48.882;12.592;2022-08-14T00:32:33;13.00;;;11.37;;
19414;SDS011;9843;48.882;12.592;2022-08-14T00:35:00;12.43;;;11.23;;
19414;SDS011;9843;48.882;12.592;2022-08-14T00:37:26;11.40;;;10.30;;
19414;SDS011;9843;48.882;12.592;2022-08-14T00:39:53;15.97;;;11.17;;
19414;SDS011;9843;48.882;12.592;2022-08-14T00:42:21;9.67;;;8.87;;
19414;SDS011;9843;48.882;12.592;2022-08-14T00:44:48;9.93;;;8.93;;
19414;SDS011;9843;48.882;12.592;2022-08-14T00:47:16;10.90;;;9.90;;
19414;SDS011;9843;48.882;12.592;2022-08-14T00:49:46;11.43;;;9.77;;
19414;SDS011;9843;48.882;12.592;2022-08-14T00:52:14;12.10;;;11.00;;
19414;SDS011;9843;48.882;12.592;2022-08-14T00:54:41;11.43;;;9.90;;
19414;SDS011;9843;48.882;12.592;2022-08-14T00:57:08;10.50;;;9.40;;
19414;SDS011;9843;48.882;12.592;2022-08-14T00:59:35;11.47;;;10.37;;
19414;SDS011;9843;48.882;12.592;2022-08-14T01:02:02;10.47;;;9.50;;
19414;SDS011;9843;48.882;12.592;2022-08-14T01:04:30;10.70;;;9.80;;
19414;SDS011;9843;48.882;12.592;2022-08-14T01:07:01;12.40;;;10.10;;
19414;SDS011;9843;48.882;12.592;2022-08-14T01:09:28;13.00;;;11.67;;
19414;SDS011;9843;48.882;12.592;2022-08-14T01:11:56;13.20;;;11.80;;
19414;SDS011;9843;48.882;12.592;2022-08-14T01:14:23;14.07;;;11.53;;
19414;SDS011;9843;48.882;12.592;2022-08-14T01:16:50;18.90;;;12.47;;
19414;SDS011;9843;48.882;12.592;2022-08-14T01:19:16;10.80;;;9.67;;
19414;SDS011;9843;48.882;12.592;2022-08-14T01:22:02;10.70;;;9.73;;
19414;SDS011;9843;48.882;12.592;2022-08-14T01:24:31;12.20;;;10.70;;
19414;SDS011;9843;48.882;12.592;2022-08-14T01:26:58;12.20;;;10.93;;
19414;SDS011;9843;48.882;12.592;2022-08-14T01:29:25;13.03;;;11.60;;
19414;SDS011;9843;48.882;12.592;2022-08-14T01:31:53;13.57;;;12.17;;
19414;SDS011;9843;48.882;12.592;2022-08-14T01:34:25;12.63;;;11.43;;
19414;SDS011;9843;48.882;12.592;2022-08-14T01:36:52;11.07;;;10.03;;
19414;SDS011;9843;48.882;12.592;2022-08-14T01:39:20;11.10;;;10.07;;
19414;SDS011;9843;48.882;12.592;2022-08-14T01:41:47;10.87;;;9.93;;
19414;SDS011;9843;48.882;12.592;2022-08-14T01:44:20;11.40;;;10.40;;
19414;SDS011;9843;48.882;12.592;2022-08-14T01:46:51;12.20;;;11.10;;
19414;SDS011;9843;48.882;12.592;2022-08-14T01:49:18;11.67;;;10.67;;
19414;SDS011;9843;48.882;12.592;2022-08-14T01:51:46;11.83;;;10.73;;
19414;SDS011;9843;48.882;12.592;2022-08-14T01:54:18;12.17;;;10.97;;
19414;SDS011;9843;48.882;12.592;2022-08-14T01:56:49;10.87;;;9.83;;
19414;SDS011;9843;48.882;12.592;2022-08-14T01:59:19;12.33;;;11.30;;
19414;SDS011;9843;48.882;12.592;2022-08-14T02:01:49;12.90;;;11.77;;
19414;SDS011;9843;48.882;12.592;2022-08-14T02:04:17;10.73;;;9.80;;
19414;SDS011;9843;48.882;12.592;2022-08-14T02:06:45;12.97;;;11.67;;
19414;SDS011;9843;48.882;12.592;2022-08-14T02:09:12;12.80;;;11.50;;
19414;SDS011;9843;48.882;12.592;2022-08-14T02:11:40;12.53;;;10.67;;
19414;SDS011;9843;48.882;12.592;2022-08-14T02:14:07;13.67;;;10.40;;
19414;SDS011;9843;48.882;12.592;2022-08-14T02:16:36;11.53;;;10.43;;
19414;SDS011;9843;48.882;12.592;2022-08-14T02:19:05;14.47;;;11.03;;
19414;SDS011;9843;48.882;12.592;2022-08-14T02:21:34;12.17;;;11.10;;
19414;SDS011;9843;48.882;12.592;2022-08-14T02:24:03;11.80;;;10.67;;
19414;SDS011;9843;48.882;12.592;2022-08-14T02:26:31;10.57;;;9.57;;
19414;SDS011;9843;48.882;12.592;2022-08-14T02:29:02;12.87;;;11.07;;
19414;SDS011;9843;48.882;12.592;2022-08-14T02:31:32;10.43;;;9.53;;
19414;SDS011;9843;48.882;12.592;2022-08-14T02:34:02;12.37;;;11.20;;
19414;SDS011;9843;48.882;12.592;2022-08-14T02:36:30;12.50;;;11.30;;
19414;SDS011;9843;48.882;12.592;2022-08-14T02:38:56;11.50;;;10.33;;
19414;SDS011;9843;48.882;12.592;2022-08-14T02:41:23;11.20;;;10.10;;
19414;SDS011;9843;48.882;12.592;2022-08-14T02:43:50;13.07;;;10.50;;
19414;SDS011;9843;48.882;12.592;2022-08-14T02:46:18;12.63;;;11.40;;
19414;SDS011;9843;48.882;12.592;2022-08-14T02:48:46;18.30;;;12.30;;
19414;SDS011;9843;48.882;12.592;2022-08-14T02:51:13;11.83;;;10.73;;
19414;SDS011;9843;48.882;12.592;2022-08-14T02:53:40;13.73;;;12.43;;
19414;SDS011;9843;48.882;12.592;2022-08-14T02:56:10;14.27;;;12.97;;
19414;SDS011;9843;48.882;12.592;2022-08-14T02:58:39;14.33;;;12.93;;
19414;SDS011;9843;48.882;12.592;2022-08-14T03:01:11;13.23;;;12.13;;
19414;SDS011;9843;48.882;12.592;2022-08-14T03:03:40;14.10;;;12.77;;
19414;SDS011;9843;48.882;12.592;2022-08-14T03:06:08;14.03;;;12.80;;
19414;SDS011;9843;48.882;12.592;2022-08-14T03:08:37;12.67;;;11.30;;
19414;SDS011;9843;48.882;12.592;2022-08-14T03:11:06;14.20;;;12.80;;
19414;SDS011;9843;48.882;12.592;2022-08-14T03:13:37;15.70;;;14.30;;
19414;SDS011;9843;48.882;12.592;2022-08-14T03:16:07;12.63;;;11.63;;
19414;SDS011;9843;48.882;12.592;2022-08-14T03:18:37;17.23;;;15.17;;
19414;SDS011;9843;48.882;12.592;2022-08-14T03:21:07;15.23;;;13.87;;
19414;SDS011;9843;48.882;12.592;2022-08-14T03:23:37;14.53;;;13.13;;
19414;SDS011;9843;48.882;12.592;2022-08-14T03:26:05;15.30;;;13.80;;
19414;SDS011;9843;48.882;12.592;2022-08-14T03:28:33;14.50;;;13.20;;
19414;SDS011;9843;48.882;12.592;2022-08-14T03:31:00;18.57;;;16.63;;
19414;SDS011;9843;48.882;12.592;2022-08-14T03:33:27;13.90;;;12.60;;
19414;SDS011;9843;48.882;12.592;2022-08-14T03:35:55;14.43;;;13.03;;
19414;SDS011;9843;48.882;12.592;2022-08-14T03:38:23;14.60;;;13.20;;
19414;SDS011;9843;48.882;12.592;2022-08-14T03:40:50;15.10;;;13.80;;
19414;SDS011;9843;48.882;12.592;2022-08-14T03:43:17;14.70;;;13.30;;
19414;SDS011;9843;48.882;12.592;2022-08-14T03:45:43;14.43;;;13.13;;
19414;SDS011;9843;48.882;12.592;2022-08-14T03:48:11;14.87;;;13.47;;
19414;SDS011;9843;48.882;12.592;2022-08-14T03:50:43;13.37;;;12.17;;
19414;SDS011;9843;48.882;12.592;2022-08-14T03:53:12;15.20;;;13.63;;
19414;SDS011;9843;48.882;12.592;2022-08-14T03:55:39;14.20;;;12.83;;
19414;SDS011;9843;48.882;12.592;2022-08-14T03:58:06;15.50;;;13.87;;
19414;SDS011;9843;48.882;12.592;2022-08-14T04:00:33;14.77;;;13.27;;
19414;SDS011;9843;48.882;12.592;2022-08-14T04:03:00;14.17;;;12.87;;
19414;SDS011;9843;48.882;12.592;2022-08-14T04:05:29;14.63;;;13.23;;
19414;SDS011;9843;48.882;12.592;2022-08-14T04:07:57;13.90;;;12.10;;
19414;SDS011;9843;48.882;12.592;2022-08-14T04:10:26;14.93;;;13.33;;
19414;SDS011;9843;48.882;12.592;2022-08-14T04:12:53;14.37;;;12.83;;
19414;SDS011;9843;48.882;12.592;2022-08-14T04:15:23;16.40;;;14.70;;
19414;SDS011;9843;48.882;12.592;2022-08-14T04:17:50;17.40;;;13.23;;
19414;SDS011;9843;48.882;12.592;2022-08-14T04:20:17;14.67;;;13.17;;
19414;SDS011;9843;48.882;12.592;2022-08-14T04:22:44;15.97;;;14.33;;
19414;SDS011;9843;48.882;12.592;2022-08-14T04:25:11;15.03;;;13.60;;
19414;SDS011;9843;48.882;12.592;2022-08-14T04:27:39;12.60;;;11.43;;
19414;SDS011;9843;48.882;12.592;2022-08-14T04:30:06;13.80;;;12.37;;
19414;SDS011;9843;48.882;12.592;2022-08-14T04:32:33;13.90;;;12.40;;
19414;SDS011;9843;48.882;12.592;2022-08-14T04:35:00;12.63;;;11.43;;
19414;SDS011;9843;48.882;12.592;2022-08-14T04:37:27;12.47;;;11.20;;
19414;SDS011;9843;48.882;12.592;2022-08-14T04:40:12;13.47;;;12.23;;
19414;SDS011;9843;48.882;12.592;2022-08-14T04:42:58;13.57;;;11.50;;
19414;SDS011;9843;48.882;12.592;2022-08-14T04:45:42;15.60;;;12.60;;
19414;SDS011;9843;48.882;12.592;2022-08-14T04:48:10;13.37;;;12.17;;
19414;SDS011;9843;48.882;12.592;2022-08-14T04:50:37;16.27;;;12.53;;
19414;SDS011;9843;48.882;12.592;2022-08-14T04:53:05;15.77;;;14.47;;
19414;SDS011;9843;48.882;12.592;2022-08-14T04:55:31;15.40;;;13.80;;
19414;SDS011;9843;48.882;12.592;2022-08-14T04:57:59;14.37;;;13.03;;
19414;SDS011;9843;48.882;12.592;2022-08-14T05:00:29;14.47;;;13.10;;
19414;SDS011;9843;48.882;12.592;2022-08-14T05:02:56;15.20;;;13.63;;
19414;SDS011;9843;48.882;12.592;2022-08-14T05:05:23;15.20;;;13.80;;
19414;SDS011;9843;48.882;12.592;2022-08-14T05:07:50;15.23;;;13.67;;
19414;SDS011;9843;48.882;12.592;2022-08-14T05:10:17;15.53;;;13.83;;
19414;SDS011;9843;48.882;12.592;2022-08-14T05:12:47;15.80;;;14.20;;
19414;SDS011;9843;48.882;12.592;2022-08-14T05:15:17;16.40;;;13.50;;
19414;SDS011;9843;48.882;12.592;2022-08-14T05:17:45;14.80;;;13.43;;
19414;SDS011;9843;48.882;12.592;2022-08-14T05:20:13;15.17;;;13.70;;
19414;SDS011;9843;48.882;12.592;2022-08-14T05:22:40;14.67;;;13.40;;
19414;SDS011;9843;48.882;12.592;2022-08-14T05:25:06;15.53;;;14.13;;
19414;SDS011;9843;48.882;12.592;2022-08-14T05:27:33;17.30;;;15.33;;
19414;SDS011;9843;48.882;12.592;2022-08-14T05:30:02;16.20;;;14.70;;
19414;SDS011;9843;48.882;12.592;2022-08-14T05:32:31;15.63;;;14.07;;
19414;SDS011;9843;48.882;12.592;2022-08-14T05:34:58;14.97;;;13.57;;
19414;SDS011;9843;48.882;12.592;2022-08-14T05:37:25;16.13;;;14.57;;
19414;SDS011;9843;48.882;12.592;2022-08-14T05:39:54;16.07;;;14.43;;
19414;SDS011;9843;48.882;12.592;2022-08-14T05:42:22;17.23;;;15.57;;
19414;SDS011;9843;48.882;12.592;2022-08-14T05:44:48;16.57;;;14.97;;
19414;SDS011;9843;48.882;12.592;2022-08-14T05:47:15;15.97;;;14.37;;
19414;SDS011;9843;48.882;12.592;2022-08-14T05:49:43;16.13;;;14.63;;
19414;SDS011;9843;48.882;12.592;2022-08-14T05:52:12;16.77;;;15.03;;
19414;SDS011;9843;48.882;12.592;2022-08-14T05:54:39;17.73;;;16.03;;
19414;SDS011;9843;48.882;12.592;2022-08-14T05:57:06;16.33;;;14.63;;
19414;SDS011;9843;48.882;12.592;2022-08-14T05:59:33;17.73;;;16.03;;
19414;SDS011;9843;48.882;12.592;2022-08-14T06:02:00;17.03;;;14.57;;
19414;SDS011;9843;48.882;12.592;2022-08-14T06:04:27;17.53;;;15.00;;
19414;SDS011;9843;48.882;12.592;2022-08-14T06:06:55;14.83;;;12.73;;
19414;SDS011;9843;48.882;12.592;2022-08-14T06:09:22;15.63;;;14.03;;
19414;SDS011;9843;48.882;12.592;2022-08-14T06:11:48;17.33;;;15.67;;
19414;SDS011;9843;48.882;12.592;2022-08-14T06:14:15;14.90;;;13.50;;
19414;SDS011;9843;48.882;12.592;2022-08-14T06:16:42;16.30;;;14.60;;
19414;SDS011;9843;48.882;12.592;2022-08-14T06:19:11;15.47;;;13.87;;
19414;SDS011;9843;48.882;12.592;2022-08-14T06:21:38;15.20;;;13.60;;
19414;SDS011;9843;48.882;12.592;2022-08-14T06:24:06;15.77;;;14.17;;
19414;SDS011;9843;48.882;12.592;2022-08-14T06:26:33;19.33;;;15.03;;
19414;SDS011;9843;48.882;12.592;2022-08-14T06:29:00;16.40;;;14.73;;
19414;SDS011;9843;48.882;12.592;2022-08-14T06:31:26;13.67;;;12.43;;
19414;SDS011;9843;48.882;12.592;2022-08-14T06:33:53;16.90;;;15.20;;
19414;SDS011;9843;48.882;12.592;2022-08-14T06:36:20;13.10;;;11.63;;
19414;SDS011;9843;48.882;12.592;2022-08-14T06:38:47;12.07;;;11.07;;
19414;SDS011;9843;48.882;12.592;2022-08-14T06:41:17;16.53;;;14.47;;
19414;SDS011;9843;48.882;12.592;2022-08-14T06:43:43;25.70;;;12.67;;
19414;SDS011;9843;48.882;12.592;2022-08-14T06:46:10;13.53;;;12.17;;
19414;SDS011;9843;48.882;12.592;2022-08-14T06:48:37;14.07;;;12.73;;
19414;SDS011;9843;48.882;12.592;2022-08-14T06:51:04;11.30;;;10.20;;
19414;SDS011;9843;48.882;12.592;2022-08-14T06:53:31;14.07;;;11.37;;
19414;SDS011;9843;48.882;12.592;2022-08-14T06:55:57;12.43;;;11.27;;
19414;SDS011;9843;48.882;12.592;2022-08-14T06:58:26;10.13;;;9.23;;
19414;SDS011;9843;48.882;12.592;2022-08-14T07:00:54;11.83;;;10.73;;
19414;SDS011;9843;48.882;12.592;2022-08-14T07:03:38;19.00;;;11.23;;
19414;SDS011;9843;48.882;12.592;2022-08-14T07:06:22;9.53;;;8.63;;
19414;SDS011;9843;48.882;12.592;2022-08-14T07:08:49;8.97;;;7.57;;
19414;SDS011;9843;48.882;12.592;2022-08-14T07:11:16;10.80;;;8.77;;
19414;SDS011;9843;48.882;12.592;2022-08-14T07:13:45;13.90;;;9.37;;
19414;SDS011;9843;48.882;12.592;2022-08-14T07:16:11;9.50;;;8.10;;
19414;SDS011;9843;48.882;12.592;2022-08-14T07:18:38;9.23;;;8.00;;
19414;SDS011;9843;48.882;12.592;2022-08-14T07:21:07;11.35;;;9.15;;
19414;SDS011;9843;48.882;12.592;2022-08-14T07:23:34;8.48;;;7.68;;
19414;SDS011;9843;48.882;12.592;2022-08-14T07:26:01;7.93;;;7.15;;
19414;SDS011;9843;48.882;12.592;2022-08-14T07:28:30;7.18;;;6.57;;
19414;SDS011;9843;48.882;12.592;2022-08-14T07:31:00;7.43;;;6.60;;
19414;SDS011;9843;48.882;12.592;2022-08-14T07:33:30;7.45;;;6.85;;
19414;SDS011;9843;48.882;12.592;2022-08-14T07:36:00;12.10;;;6.93;;
19414;SDS011;9843;48.882;12.592;2022-08-14T07:38:28;7.53;;;6.93;;
19414;SDS011;9843;48.882;12.592;2022-08-14T07:40:55;6.20;;;4.95;;
19414;SDS011;9843;48.882;12.592;2022-08-14T07:43:23;8.35;;;7.55;;
19414;SDS011;9843;48.882;12.592;2022-08-14T07:45:51;6.40;;;5.80;;
19414;SDS011;9843;48.882;12.592;2022-08-14T07:48:19;10.98;;;5.75;;
19414;SDS011;9843;48.882;12.592;2022-08-14T07:50:46;6.32;;;5.68;;
19414;SDS011;9843;48.882;12.592;2022-08-14T07:53:14;8.98;;;4.93;;
19414;SDS011;9843;48.882;12.592;2022-08-14T07:55:42;4.43;;;4.03;;
19414;SDS011;9843;48.882;12.592;2022-08-14T07:58:09;7.85;;;4.55;;
19414;SDS011;9843;48.882;12.592;2022-08-14T08:00:36;5.57;;;5.07;;
19414;SDS011;9843;48.882;12.592;2022-08-14T08:03:03;6.47;;;3.92;;
19414;SDS011;9843;48.882;12.592;2022-08-14T08:05:36;4.70;;;4.30;;
19414;SDS011;9843;48.882;12.592;2022-08-14T08:08:05;6.45;;;4.35;;
19414;SDS011;9843;48.882;12.592;2022-08-14T08:10:33;3.47;;;3.17;;
19414;SDS011;9843;48.882;12.592;2022-08-14T08:13:03;3.47;;;3.17;;
19414;SDS011;9843;48.882;12.592;2022-08-14T08:15:32;5.70;;;3.83;;
19414;SDS011;9843;48.882;12.592;2022-08-14T08:18:01;3.92;;;3.13;;
19414;SDS011;9843;48.882;12.592;2022-08-14T08:20:29;3.72;;;3.30;;
19414;SDS011;9843;48.882;12.592;2022-08-14T08:22:59;5.47;;;3.63;;
19414;SDS011;9843;48.882;12.592;2022-08-14T08:25:28;4.28;;;3.88;;
19414;SDS011;9843;48.882;12.592;2022-08-14T08:27:56;3.35;;;2.97;;
19414;SDS011;9843;48.882;12.592;2022-08-14T08:30:25;4.85;;;3.22;;
19414;SDS011;9843;48.882;12.592;2022-08-14T08:32:53;4.20;;;3.53;;
19414;SDS011;9843;48.882;12.592;2022-08-14T08:35:21;3.95;;;3.60;;
19414;SDS011;9843;48.882;12.592;2022-08-14T08:37:50;4.25;;;3.42;;
19414;SDS011;9843;48.882;12.592;2022-08-14T08:40:22;3.13;;;2.70;;
19414;SDS011;9843;48.882;12.592;2022-08-14T08:42:50;4.53;;;3.28;;
19414;SDS011;9843;48.882;12.592;2022-08-14T08:45:17;2.50;;;2.30;;
19414;SDS011;9843;48.882;12.592;2022-08-14T08:47:45;3.72;;;3.33;;
19414;SDS011;9843;48.882;12.592;2022-08-14T08:50:16;4.43;;;4.05;;
19414;SDS011;9843;48.882;12.592;2022-08-14T08:52:48;3.20;;;2.88;;
19414;SDS011;9843;48.882;12.592;2022-08-14T08:55:24;4.15;;;3.75;;
19414;SDS011;9843;48.882;12.592;2022-08-14T08:57:55;3.40;;;3.10;;
19414;SDS011;9843;48.882;12.592;2022-08-14T09:00:23;6.95;;;3.20;;
19414;SDS011;9843;48.882;12.592;2022-08-14T09:02:53;5.07;;;3.72;;
19414;SDS011;9843;48.882;12.592;2022-08-14T09:05:22;4.15;;;3.22;;
19414;SDS011;9843;48.882;12.592;2022-08-14T09:07:49;6.13;;;4.47;;
19414;SDS011;9843;48.882;12.592;2022-08-14T09:10:16;5.57;;;4.07;;
19414;SDS011;9843;48.882;12.592;2022-08-14T09:12:45;5.88;;;4.93;;
19414;SDS011;9843;48.882;12.592;2022-08-14T09:15:12;4.82;;;3.60;;
19414;SDS011;9843;48.882;12.592;2022-08-14T09:17:40;4.97;;;3.88;;
19414;SDS011;9843;48.882;12.592;2022-08-14T09:20:08;4.55;;;2.95;;
19414;SDS011;9843;48.882;12.592;2022-08-14T09:22:36;4.85;;;3.13;;
19414;SDS011;9843;48.882;12.592;2022-08-14T09:25:04;5.07;;;3.75;;
19414;SDS011;9843;48.882;12.592;2022-08-14T09:27:31;5.22;;;3.22;;
19414;SDS011;9843;48.882;12.592;2022-08-14T09:29:59;5.75;;;3.90;;
19414;SDS011;9843;48.882;12.592;2022-08-14T09:32:28;5.05;;;3.50;;
19414;SDS011;9843;48.882;12.592;2022-08-14T09:35:03;3.90;;;3.15;;
19414;SDS011;9843;48.882;12.592;2022-08-14T09:37:39;5.55;;;2.85;;
19414;SDS011;9843;48.882;12.592;2022-08-14T09:40:18;4.22;;;3.83;;
19414;SDS011;9843;48.882;12.592;2022-08-14T09:42:56;4.43;;;3.60;;
19414;SDS011;9843;48.882;12.592;2022-08-14T09:45:34;4.28;;;3.85;;
19414;SDS011;9843;48.882;12.592;2022-08-14T09:48:12;3.35;;;2.67;;
19414;SDS011;9843;48.882;12.592;2022-08-14T09:50:44;3.95;;;3.55;;
19414;SDS011;9843;48.882;12.592;2022-08-14T09:53:14;4.55;;;3.35;;
19414;SDS011;9843;48.882;12.592;2022-08-14T09:55:42;6.40;;;3.15;;
19414;SDS011;9843;48.882;12.592;2022-08-14T09:58:10;4.32;;;3.90;;
19414;SDS011;9843;48.882;12.592;2022-08-14T10:00:43;4.18;;;3.35;;
19414;SDS011;9843;48.882;12.592;2022-08-14T10:03:12;4.93;;;3.70;;
19414;SDS011;9843;48.882;12.592;2022-08-14T10:05:49;6.55;;;5.95;;
19414;SDS011;9843;48.882;12.592;2022-08-14T10:08:17;5.90;;;4.38;;
19414;SDS011;9843;48.882;12.592;2022-08-14T10:10:45;5.60;;;5.05;;
19414;SDS011;9843;48.882;12.592;2022-08-14T10:13:22;5.28;;;4.03;;
19414;SDS011;9843;48.882;12.592;2022-08-14T10:15:56;5.53;;;3.58;;
19414;SDS011;9843;48.882;12.592;2022-08-14T10:18:26;3.22;;;2.97;;
19414;SDS011;9843;48.882;12.592;2022-08-14T10:20:53;5.30;;;3.85;;
19414;SDS011;9843;48.882;12.592;2022-08-14T10:23:23;5.47;;;3.63;;
19414;SDS011;9843;48.882;12.592;2022-08-14T10:25:56;6.43;;;3.53;;
19414;SDS011;9843;48.882;12.592;2022-08-14T10:28:37;4.47;;;4.07;;
19414;SDS011;9843;48.882;12.592;2022-08-14T10:31:16;3.75;;;3.40;;
19414;SDS011;9843;48.882;12.592;2022-08-14T10:33:57;3.78;;;3.47;;
19414;SDS011;9843;48.882;12.592;2022-08-14T10:36:26;3.05;;;2.75;;
19414;SDS011;9843;48.882;12.592;2022-08-14T10:38:56;3.45;;;3.15;;
19414;SDS011;9843;48.882;12.592;2022-08-14T10:41:32;4.53;;;4.05;;
19414;SDS011;9843;48.882;12.592;2022-08-14T10:44:05;3.47;;;2.95;;
19414;SDS011;9843;48.882;12.592;2022-08-14T10:49:16;5.75;;;4.35;;
19414;SDS011;9843;48.882;12.592;2022-08-14T10:51:57;3.92;;;3.53;;
19414;SDS011;9843;48.882;12.592;2022-08-14T10:54:30;5.60;;;4.65;;
19414;SDS011;9843;48.882;12.592;2022-08-14T10:57:09;5.07;;;3.83;;
19414;SDS011;9843;48.882;12.592;2022-08-14T10:59:40;5.88;;;4.50;;
19414;SDS011;9843;48.882;12.592;2022-08-14T11:02:16;3.95;;;3.55;;
19414;SDS011;9843;48.882;12.592;2022-08-14T11:04:55;4.30;;;3.70;;
19414;SDS011;9843;48.882;12.592;2022-08-14T11:07:37;4.40;;;3.13;;
19414;SDS011;9843;48.882;12.592;2022-08-14T11:10:05;4.20;;;2.75;;
19414;SDS011;9843;48.882;12.592;2022-08-14T11:12:39;4.43;;;3.28;;
19414;SDS011;9843;48.882;12.592;2022-08-14T11:15:10;3.70;;;3.40;;
19414;SDS011;9843;48.882;12.592;2022-08-14T11:17:39;4.88;;;3.00;;
19414;SDS011;9843;48.882;12.592;2022-08-14T11:20:07;4.47;;;3.88;;
19414;SDS011;9843;48.882;12.592;2022-08-14T11:22:36;4.20;;;3.53;;
19414;SDS011;9843;48.882;12.592;2022-08-14T11:25:06;3.85;;;3.20;;
19414;SDS011;9843;48.882;12.592;2022-08-14T11:27:34;4.88;;;3.92;;
19414;SDS011;9843;48.882;12.592;2022-08-14T11:30:04;7.53;;;3.47;;
19414;SDS011;9843;48.882;12.592;2022-08-14T11:32:33;3.25;;;3.00;;
19414;SDS011;9843;48.882;12.592;2022-08-14T11:35:01;6.30;;;3.60;;
19414;SDS011;9843;48.882;12.592;2022-08-14T11:37:28;3.17;;;2.88;;
19414;SDS011;9843;48.882;12.592;2022-08-14T11:39:57;3.70;;;3.30;;
19414;SDS011;9843;48.882;12.592;2022-08-14T11:42:26;5.47;;;2.67;;
19414;SDS011;9843;48.882;12.592;2022-08-14T11:44:55;4.15;;;3.75;;
19414;SDS011;9843;48.882;12.592;2022-08-14T11:47:23;4.00;;;3.60;;
19414;SDS011;9843;48.882;12.592;2022-08-14T11:49:50;4.60;;;3.58;;
19414;SDS011;9843;48.882;12.592;2022-08-14T11:52:18;3.90;;;3.60;;
19414;SDS011;9843;48.882;12.592;2022-08-14T11:54:45;6.60;;;3.83;;
19414;SDS011;9843;48.882;12.592;2022-08-14T11:57:22;4.97;;;3.08;;
19414;SDS011;9843;48.882;12.592;2022-08-14T11:59:58;3.75;;;3.45;;
19414;SDS011;9843;48.882;12.592;2022-08-14T12:02:25;5.20;;;3.38;;
19414;SDS011;9843;48.882;12.592;2022-08-14T12:04:52;6.57;;;4.63;;
19414;SDS011;9843;48.882;12.592;2022-08-14T12:07:20;5.18;;;3.90;;
19414;SDS011;9843;48.882;12.592;2022-08-14T12:09:50;4.78;;;3.60;;
19414;SDS011;9843;48.882;12.592;2022-08-14T12:12:20;4.03;;;3.10;;
19414;SDS011;9843;48.882;12.592;2022-08-14T12:14:48;3.72;;;3.35;;
19414;SDS011;9843;48.882;12.592;2022-08-14T12:17:20;6.93;;;4.07;;
19414;SDS011;9843;48.882;12.592;2022-08-14T12:19:48;3.72;;;3.42;;
19414;SDS011;9843;48.882;12.592;2022-08-14T12:22:17;4.57;;;3.28;;
19414;SDS011;9843;48.882;12.592;2022-08-14T12:24:49;5.43;;;4.60;;
19414;SDS011;9843;48.882;12.592;2022-08-14T12:27:16;4.72;;;4.32;;
19414;SDS011;9843;48.882;12.592;2022-08-14T12:29:50;4.18;;;3.78;;
19414;SDS011;9843;48.882;12.592;2022-08-14T12:32:17;5.47;;;4.88;;
19414;SDS011;9843;48.882;12.592;2022-08-14T12:34:50;6.85;;;4.63;;
19414;SDS011;9843;48.882;12.592;2022-08-14T12:37:27;4.40;;;4.00;;
19414;SDS011;9843;48.882;12.592;2022-08-14T12:40:08;6.88;;;4.25;;
19414;SDS011;9843;48.882;12.592;2022-08-14T12:42:36;5.43;;;4.90;;
19414;SDS011;9843;48.882;12.592;2022-08-14T12:45:04;5.45;;;4.47;;
19414;SDS011;9843;48.882;12.592;2022-08-14T12:47:32;4.20;;;3.83;;
19414;SDS011;9843;48.882;12.592;2022-08-14T12:49:59;4.82;;;4.28;;
19414;SDS011;9843;48.882;12.592;2022-08-14T12:52:26;6.00;;;5.03;;
19414;SDS011;9843;48.882;12.592;2022-08-14T12:54:56;4.38;;;3.97;;
19414;SDS011;9843;48.882;12.592;2022-08-14T12:57:31;3.78;;;3.42;;
19414;SDS011;9843;48.882;12.592;2022-08-14T13:00:07;4.47;;;4.07;;
19414;SDS011;9843;48.882;12.592;2022-08-14T13:02:37;5.97;;;5.25;;
19414;SDS011;9843;48.882;12.592;2022-08-14T13:05:05;8.60;;;5.35;;
19414;SDS011;9843;48.882;12.592;2022-08-14T13:07:34;7.32;;;4.90;;
19414;SDS011;9843;48.882;12.592;2022-08-14T13:10:04;4.60;;;4.18;;
19414;SDS011;9843;48.882;12.592;2022-08-14T13:12:34;4.32;;;3.92;;
19414;SDS011;9843;48.882;12.592;2022-08-14T13:15:03;5.75;;;4.60;;
19414;SDS011;9843;48.882;12.592;2022-08-14T13:17:33;8.60;;;5.22;;
19414;SDS011;9843;48.882;12.592;2022-08-14T13:20:04;5.50;;;4.20;;
19414;SDS011;9843;48.882;12.592;2022-08-14T13:22:34;6.97;;;4.18;;
19414;SDS011;9843;48.882;12.592;2022-08-14T13:25:02;6.28;;;5.15;;
19414;SDS011;9843;48.882;12.592;2022-08-14T13:27:30;5.47;;;4.68;;
19414;SDS011;9843;48.882;12.592;2022-08-14T13:29:59;5.80;;;5.22;;
19414;SDS011;9843;48.882;12.592;2022-08-14T13:32:27;7.07;;;4.85;;
19414;SDS011;9843;48.882;12.592;2022-08-14T13:34:54;7.45;;;5.25;;
19414;SDS011;9843;48.882;12.592;2022-08-14T13:37:23;4.78;;;4.38;;
19414;SDS011;9843;48.882;12.592;2022-08-14T13:39:51;4.88;;;4.32;;
19414;SDS011;9843;48.882;12.592;2022-08-14T13:42:20;5.35;;;4.68;;
19414;SDS011;9843;48.882;12.592;2022-08-14T13:44:48;5.00;;;4.50;;
19414;SDS011;9843;48.882;12.592;2022-08-14T13:47:19;4.75;;;4.25;;
19414;SDS011;9843;48.882;12.592;2022-08-14T13:49:46;5.45;;;4.70;;
19414;SDS011;9843;48.882;12.592;2022-08-14T13:52:15;5.75;;;5.07;;
19414;SDS011;9843;48.882;12.592;2022-08-14T13:54:44;6.72;;;5.47;;
19414;SDS011;9843;48.882;12.592;2022-08-14T13:57:12;7.82;;;5.28;;
19414;SDS011;9843;48.882;12.592;2022-08-14T13:59:42;5.38;;;4.90;;
19414;SDS011;9843;48.882;12.592;2022-08-14T14:02:10;6.97;;;5.10;;
19414;SDS011;9843;48.882;12.592;2022-08-14T14:04:40;7.45;;;4.82;;
19414;SDS011;9843;48.882;12.592;2022-08-14T14:07:09;5.03;;;4.32;;
19414;SDS011;9843;48.882;12.592;2022-08-14T14:09:38;7.53;;;6.72;;
19414;SDS011;9843;48.882;12.592;2022-08-14T14:12:07;5.80;;;5.30;;
19414;SDS011;9843;48.882;12.592;2022-08-14T14:14:35;7.97;;;5.63;;
19414;SDS011;9843;48.882;12.592;2022-08-14T14:17:03;4.57;;;4.18;;
19414;SDS011;9843;48.882;12.592;2022-08-14T14:19:31;4.97;;;4.50;;
19414;SDS011;9843;48.882;12.592;2022-08-14T14:22:00;7.13;;;4.72;;
19414;SDS011;9843;48.882;12.592;2022-08-14T14:24:29;5.60;;;4.70;;
19414;SDS011;9843;48.882;12.592;2022-08-14T14:26:58;4.65;;;4.25;;
19414;SDS011;9843;48.882;12.592;2022-08-14T14:29:27;4.45;;;3.42;;
19414;SDS011;9843;48.882;12.592;2022-08-14T14:31:56;5.75;;;4.78;;
19414;SDS011;9843;48.882;12.592;2022-08-14T14:34:25;9.13;;;4.35;;
19414;SDS011;9843;48.882;12.592;2022-08-14T14:36:54;5.13;;;4.28;;
19414;SDS011;9843;48.882;12.592;2022-08-14T14:39:30;6.82;;;4.47;;
19414;SDS011;9843;48.882;12.592;2022-08-14T14:41:58;3.92;;;3.47;;
19414;SDS011;9843;48.882;12.592;2022-08-14T14:44:32;4.30;;;3.75;;
19414;SDS011;9843;48.882;12.592;2022-08-14T14:47:05;4.13;;;3.72;;
19414;SDS011;9843;48.882;12.592;2022-08-14T14:49:34;5.15;;;4.65;;